sensor_id;sensor_type;location;lat;lon;timestamp;P1;durP1;ratioP1;P2;durP2;ratioP2
58974;SDS011;44751;52.236;5.178;2022-12-18T11:54:35;20.17;;;12.38;;
58974;SDS011;44751;52.236;5.178;2022-12-18T11:57:05;22.48;;;13.07;;
58974;SDS011;44751;52.236;5.178;2022-12-18T12:00:16;20.25;;;11.98;;
58974;SDS011;44751;52.236;5.178;2022-12-18T12:11:01;20.90;;;11.38;;
58974;SDS011;44751;52.236;5.178;2022-12-18T12:16:22;18.90;;;10.65;;
58974;SDS011;44751;52.236;5.178;2022-12-18T12:22:44;18.58;;;11.73;;
58974;SDS011;44751;52.236;5.178;2022-12-18T12:38:59;21.33;;;11.50;;
58974;SDS011;44751;52.236;5.178;2022-12-18T12:41:31;18.40;;;10.98;;
58974;SDS011;44751;52.236;5.178;2022-12-18T12:46:58;22.17;;;12.35;;
58974;SDS011;44751;52.236;5.178;2022-12-18T12:49:38;22.08;;;11.65;;
58974;SDS011;44751;52.236;5.178;2022-12-18T12:52:23;21.35;;;11.38;;
58974;SDS011;44751;52.236;5.178;2022-12-18T12:54:57;21.60;;;12.00;;
58974;SDS011;44751;52.236;5.178;2022-12-18T14:47:44;20.20;;;13.40;;
58974;SDS011;44751;52.236;5.178;2022-12-18T14:50:18;22.20;;;13.15;;
58974;SDS011;44751;52.236;5.178;2022-12-18T14:52:47;24.70;;;13.20;;
58974;SDS011;44751;52.236;5.178;2022-12-18T14:55:17;22.25;;;12.18;;
58974;SDS011;44751;52.236;5.178;2022-12-18T14:57:46;22.70;;;13.35;;
58974;SDS011;44751;52.236;5.178;2022-12-18T15:00:19;24.90;;;13.65;;
58974;SDS011;44751;52.236;5.178;2022-12-18T15:02:49;22.70;;;13.18;;
58974;SDS011;44751;52.236;5.178;2022-12-18T15:05:27;22.80;;;13.35;;
58974;SDS011;44751;52.236;5.178;2022-12-18T15:07:58;24.15;;;13.93;;
58974;SDS011;44751;52.236;5.178;2022-12-18T15:13:07;23.02;;;14.00;;
58974;SDS011;44751;52.236;5.178;2022-12-18T21:34:23;35.13;;;18.40;;
58974;SDS011;44751;52.236;5.178;2022-12-18T21:36:54;34.20;;;18.48;;
58974;SDS011;44751;52.236;5.178;2022-12-18T21:39:22;35.35;;;19.52;;
58974;SDS011;44751;52.236;5.178;2022-12-18T21:41:49;39.08;;;20.70;;
58974;SDS011;44751;52.236;5.178;2022-12-18T21:44:33;36.75;;;20.02;;
58974;SDS011;44751;52.236;5.178;2022-12-18T21:47:01;38.92;;;20.15;;
58974;SDS011;44751;52.236;5.178;2022-12-18T21:49:27;36.53;;;20.10;;
58974;SDS011;44751;52.236;5.178;2022-12-18T21:51:55;39.00;;;20.33;;
58974;SDS011;44751;52.236;5.178;2022-12-18T21:54:25;41.15;;;21.73;;
58974;SDS011;44751;52.236;5.178;2022-12-18T21:57:00;37.35;;;20.50;;
58974;SDS011;44751;52.236;5.178;2022-12-18T22:02:07;38.65;;;21.05;;
58974;SDS011;44751;52.236;5.178;2022-12-18T22:15:12;39.22;;;20.52;;
58974;SDS011;44751;52.236;5.178;2022-12-18T23:04:13;44.53;;;21.65;;
58974;SDS011;44751;52.236;5.178;2022-12-18T23:06:52;43.25;;;21.80;;
58974;SDS011;44751;52.236;5.178;2022-12-18T23:09:30;42.00;;;21.08;;
58974;SDS011;44751;52.236;5.178;2022-12-18T23:14:51;41.10;;;21.33;;
58974;SDS011;44751;52.236;5.178;2022-12-18T23:17:38;41.13;;;21.75;;
58974;SDS011;44751;52.236;5.178;2022-12-18T23:20:08;42.28;;;20.70;;
58974;SDS011;44751;52.236;5.178;2022-12-18T23:22:38;39.70;;;21.40;;
58974;SDS011;44751;52.236;5.178;2022-12-18T23:25:14;48.60;;;23.00;;
58974;SDS011;44751;52.236;5.178;2022-12-18T23:27:42;42.80;;;21.77;;
58974;SDS011;44751;52.236;5.178;2022-12-18T23:30:18;41.72;;;21.23;;
58974;SDS011;44751;52.236;5.178;2022-12-18T23:32:47;41.03;;;22.20;;
58974;SDS011;44751;52.236;5.178;2022-12-18T23:35:27;39.15;;;20.10;;
